Time;durP1;ratioP1;P1;durP2;ratioP2;P2;SDS_P1;SDS_P2;PMS_P1;PMS_P2;Temp;Humidity;BMP_temperature;BMP_pressure;BME280_temperature;BME280_humidity;BME280_pressure;Samples;Min_cycle;Max_cycle;Signal;HPM_P1;HPM_P2
2021/11/08 00:00:09;;;;;;;2.45;1.08;;;18.50;63.40;;;;;;6305748;22;20006;-71
2021/11/08 00:02:36;;;;;;;6.00;1.70;;;18.60;63.60;;;;;;6334501;22;19999;-69
2021/11/08 00:05:04;;;;;;;2.70;1.00;;;18.60;63.90;;;;;;6334115;22;20062;-71
2021/11/08 00:07:31;;;;;;;3.00;1.10;;;18.50;64.00;;;;;;6333774;22;20378;-71
2021/11/08 00:09:57;;;;;;;2.40;0.82;;;18.50;64.20;;;;;;6334628;22;20003;-72
2021/11/08 00:12:24;;;;;;;0.77;0.50;;;18.50;64.30;;;;;;6333494;22;19995;-71
2021/11/08 00:14:57;;;;;;;3.22;0.73;;;18.40;64.20;;;;;;6333846;22;20089;-71
2021/11/08 00:20:27;;;;;;;1.98;1.00;;;18.40;63.90;;;;;;6334076;22;20006;-72
2021/11/08 00:22:54;;;;;;;3.15;1.58;;;18.40;64.60;;;;;;6334250;22;20052;-73
2021/11/08 00:25:21;;;;;;;2.55;0.90;;;18.40;64.00;;;;;;6332930;22;20011;-72
2021/11/08 00:27:48;;;;;;;0.65;0.55;;;18.40;64.00;;;;;;6333833;22;20072;-74
2021/11/08 00:30:14;;;;;;;2.70;0.70;;;18.40;64.00;;;;;;6332411;22;20005;-70
2021/11/08 00:32:41;;;;;;;1.65;0.80;;;18.40;63.90;;;;;;6334906;22;20422;-70
2021/11/08 00:35:08;;;;;;;2.20;0.63;;;18.30;64.00;;;;;;6331103;22;20022;-69
2021/11/08 00:37:35;;;;;;;3.85;1.55;;;18.40;64.20;;;;;;6332544;22;20093;-71
2021/11/08 00:40:04;;;;;;;1.80;0.40;;;18.40;64.30;;;;;;6334104;22;20073;-72
2021/11/08 00:42:30;;;;;;;3.58;0.60;;;18.30;64.60;;;;;;6332832;22;20022;-70
2021/11/08 00:44:57;;;;;;;4.75;1.13;;;18.30;64.60;;;;;;6333790;22;20090;-69
2021/11/08 00:47:25;;;;;;;3.30;0.57;;;18.30;64.70;;;;;;6333334;22;20052;-69
2021/11/08 00:49:53;;;;;;;1.08;0.70;;;18.30;64.50;;;;;;6334052;22;20006;-70
2021/11/08 00:52:20;;;;;;;2.13;0.95;;;18.30;64.30;;;;;;6332766;22;20014;-69
2021/11/08 00:54:47;;;;;;;2.35;0.65;;;18.30;64.00;;;;;;6333622;22;20052;-70
2021/11/08 00:57:18;;;;;;;3.55;1.10;;;18.30;63.60;;;;;;6334439;22;20644;-70
2021/11/08 00:59:44;;;;;;;2.05;0.90;;;18.30;63.50;;;;;;6334564;22;19999;-70
2021/11/08 01:02:12;;;;;;;2.30;0.85;;;18.20;63.40;;;;;;6335721;22;20029;-69
2021/11/08 01:04:41;;;;;;;2.90;0.95;;;18.20;63.50;;;;;;6334395;22;20045;-70
2021/11/08 01:07:08;;;;;;;1.75;0.50;;;18.20;63.50;;;;;;6335695;22;20074;-70
2021/11/08 01:09:35;;;;;;;5.30;0.90;;;18.20;63.70;;;;;;6334453;22;20048;-70
2021/11/08 01:12:02;;;;;;;3.30;0.95;;;18.20;64.20;;;;;;6335284;22;20084;-72
2021/11/08 01:14:28;;;;;;;1.85;0.70;;;18.20;64.30;;;;;;6335642;22;20041;-70
2021/11/08 01:16:57;;;;;;;4.00;1.73;;;18.20;64.50;;;;;;6334315;22;20357;-70
2021/11/08 01:19:27;;;;;;;2.20;0.60;;;18.20;64.50;;;;;;6335395;22;20318;-69
2021/11/08 01:22:03;;;;;;;2.75;0.70;;;18.20;64.60;;;;;;6334032;22;20003;-71
2021/11/08 01:24:30;;;;;;;1.15;0.88;;;18.20;65.00;;;;;;6335499;22;19995;-70
2021/11/08 01:26:57;;;;;;;4.25;0.80;;;18.20;65.10;;;;;;6334375;22;20045;-70
2021/11/08 01:29:23;;;;;;;3.10;0.70;;;18.20;65.20;;;;;;6335642;22;20032;-69
2021/11/08 01:31:50;;;;;;;2.05;0.70;;;18.20;65.30;;;;;;6335571;22;20077;-69
2021/11/08 01:34:16;;;;;;;2.47;0.70;;;18.20;65.30;;;;;;6334930;22;19995;-70
2021/11/08 01:36:50;;;;;;;0.85;0.60;;;18.10;65.40;;;;;;6335619;22;20002;-69
2021/11/08 01:39:21;;;;;;;2.95;0.80;;;18.10;65.60;;;;;;6334293;22;20003;-70
2021/11/08 01:41:47;;;;;;;3.47;1.00;;;18.00;65.80;;;;;;6307366;22;20346;-69
2021/11/08 01:44:15;;;;;;;4.30;0.80;;;18.00;65.90;;;;;;6334853;22;20430;-69
2021/11/08 01:46:42;;;;;;;1.55;0.77;;;18.00;66.00;;;;;;6335115;22;20033;-69
2021/11/08 01:49:09;;;;;;;3.47;0.55;;;18.00;66.10;;;;;;6335424;22;20048;-69
2021/11/08 01:51:36;;;;;;;4.20;0.80;;;18.00;66.00;;;;;;6334067;22;20013;-69
2021/11/08 01:54:06;;;;;;;1.95;0.90;;;18.00;66.10;;;;;;6335615;22;20005;-72
2021/11/08 01:56:33;;;;;;;5.13;1.27;;;18.00;66.10;;;;;;6334169;22;19995;-70
2021/11/08 01:59:00;;;;;;;1.83;1.52;;;18.00;66.00;;;;;;6335550;22;20048;-71
2021/11/08 02:01:27;;;;;;;2.00;0.65;;;18.10;65.90;;;;;;6306236;22;20011;-70
2021/11/08 02:03:54;;;;;;;2.63;0.70;;;18.00;65.70;;;;;;6334781;22;20385;-70
2021/11/08 02:06:20;;;;;;;1.25;0.77;;;18.00;65.60;;;;;;6334794;22;20010;-71
2021/11/08 02:08:47;;;;;;;1.75;0.90;;;18.00;65.40;;;;;;6333991;22;20023;-70
2021/11/08 02:11:15;;;;;;;3.88;1.55;;;18.00;65.30;;;;;;6335535;22;20003;-72
2021/11/08 02:13:41;;;;;;;2.60;0.80;;;18.00;64.90;;;;;;6334218;22;20003;-71
2021/11/08 02:16:08;;;;;;;1.95;0.93;;;18.00;64.90;;;;;;6335092;22;20116;-71
2021/11/08 02:18:37;;;;;;;1.58;0.88;;;18.00;64.90;;;;;;6333619;22;20002;-73
2021/11/08 02:21:07;;;;;;;2.70;1.15;;;18.00;65.00;;;;;;6334931;22;19999;-70
2021/11/08 02:23:34;;;;;;;3.15;1.00;;;17.90;65.20;;;;;;6334742;22;20033;-70
2021/11/08 02:26:03;;;;;;;2.03;1.13;;;17.90;65.30;;;;;;6333935;22;20007;-69
2021/11/08 02:28:30;;;;;;;3.72;1.35;;;17.90;65.60;;;;;;6335620;22;19999;-71
2021/11/08 02:30:58;;;;;;;2.03;1.90;;;17.90;65.80;;;;;;6333434;22;20001;-71
2021/11/08 02:33:26;;;;;;;2.85;1.10;;;17.90;66.10;;;;;;6334729;22;20014;-73
2021/11/08 02:35:54;;;;;;;2.33;1.73;;;17.80;66.30;;;;;;6333463;22;19995;-70
2021/11/08 02:38:24;;;;;;;2.72;1.00;;;17.80;66.30;;;;;;6334625;22;19995;-71
2021/11/08 02:40:54;;;;;;;2.90;0.80;;;17.80;66.50;;;;;;6306356;22;20107;-73
2021/11/08 02:43:22;;;;;;;3.72;0.80;;;17.80;66.50;;;;;;6333942;22;20029;-71
2021/11/08 02:46:16;;;;;;;1.70;0.77;;;17.80;66.60;;;;;;6334605;22;20011;-72
2021/11/08 02:48:46;;;;;;;2.78;0.55;;;17.80;66.90;;;;;;6333573;22;20587;-71
2021/11/08 02:51:18;;;;;;;2.25;1.00;;;17.80;67.00;;;;;;6332245;22;20466;-69
2021/11/08 02:53:47;;;;;;;3.17;1.00;;;17.80;67.20;;;;;;6333831;22;20048;-70
2021/11/08 02:56:15;;;;;;;2.17;0.88;;;17.80;67.20;;;;;;6334563;22;20003;-68
2021/11/08 02:58:43;;;;;;;3.65;1.10;;;17.80;67.20;;;;;;6334729;22;20006;-72
2021/11/08 03:01:14;;;;;;;3.15;0.95;;;17.80;67.30;;;;;;6333841;22;20002;-71
2021/11/08 03:03:42;;;;;;;1.45;1.27;;;17.80;67.40;;;;;;6335352;22;19999;-72
2021/11/08 03:06:16;;;;;;;1.30;0.70;;;17.80;67.40;;;;;;6333499;22;20010;-72
2021/11/08 03:08:43;;;;;;;2.67;1.00;;;17.80;67.40;;;;;;6334506;22;20026;-70
2021/11/08 03:11:10;;;;;;;1.45;0.75;;;17.80;67.70;;;;;;6334093;22;20049;-74
2021/11/08 03:13:39;;;;;;;3.20;1.15;;;17.80;67.50;;;;;;6333935;22;20242;-70
2021/11/08 03:16:22;;;;;;;3.25;1.15;;;17.80;67.40;;;;;;6334449;22;19999;-70
2021/11/08 03:18:55;;;;;;;2.58;1.48;;;17.80;68.00;;;;;;6333045;22;20082;-71
2021/11/08 03:21:23;;;;;;;3.15;1.83;;;17.70;67.30;;;;;;6334350;22;20468;-70
2021/11/08 03:23:53;;;;;;;1.67;0.80;;;17.80;67.40;;;;;;6333297;22;20002;-72
2021/11/08 03:26:38;;;;;;;3.55;1.33;;;17.70;67.30;;;;;;6333194;22;20014;-69
2021/11/08 03:29:05;;;;;;;1.40;0.50;;;17.70;67.50;;;;;;6334362;22;19998;-71
2021/11/08 03:31:34;;;;;;;3.03;0.68;;;17.70;67.50;;;;;;6332849;22;19998;-71
2021/11/08 03:34:01;;;;;;;2.55;0.90;;;17.70;67.60;;;;;;6334083;22;19995;-70
2021/11/08 03:36:27;;;;;;;2.58;0.70;;;17.60;67.70;;;;;;6333597;22;20002;-69
2021/11/08 03:38:55;;;;;;;1.65;0.75;;;17.60;67.80;;;;;;6335053;22;20434;-69
2021/11/08 03:41:21;;;;;;;3.00;0.68;;;17.60;67.90;;;;;;6332385;22;19994;-69
2021/11/08 03:43:48;;;;;;;2.58;1.70;;;17.60;67.90;;;;;;6333999;22;20461;-70
2021/11/08 03:46:14;;;;;;;2.35;0.80;;;17.60;67.90;;;;;;6334572;22;20187;-70
2021/11/08 03:48:41;;;;;;;3.08;1.42;;;17.60;67.90;;;;;;6333164;22;20681;-70
2021/11/08 03:51:09;;;;;;;2.10;0.70;;;17.60;67.90;;;;;;6334709;22;20049;-74
2021/11/08 03:53:36;;;;;;;2.30;0.95;;;17.60;68.00;;;;;;6332992;22;20002;-71
2021/11/08 03:56:03;;;;;;;1.55;0.63;;;17.60;68.00;;;;;;6334104;22;19995;-70
2021/11/08 03:58:31;;;;;;;41.60;23.77;;;17.60;68.10;;;;;;6332998;22;20491;-67
2021/11/08 04:00:58;;;;;;;25.40;14.52;;;17.60;68.40;;;;;;6333977;22;20002;-70
2021/11/08 04:03:25;;;;;;;8.90;4.78;;;17.60;68.30;;;;;;6302193;22;19999;-69
2021/11/08 04:05:52;;;;;;;4.63;1.50;;;17.60;68.30;;;;;;6330992;22;20329;-71
2021/11/08 04:08:21;;;;;;;1.55;1.20;;;17.60;68.30;;;;;;6333480;22;19991;-69
2021/11/08 04:10:52;;;;;;;3.28;0.85;;;17.50;68.40;;;;;;6304436;22;20071;-69
2021/11/08 04:13:28;;;;;;;11.02;1.55;;;17.60;68.40;;;;;;6334223;22;20038;-70
2021/11/08 04:15:55;;;;;;;3.67;1.23;;;17.60;69.00;;;;;;6333096;22;20002;-71
2021/11/08 04:18:25;;;;;;;7.55;5.30;;;17.60;68.70;;;;;;6333411;22;19998;-73
2021/11/08 04:20:53;;;;;;;33.80;27.08;;;17.60;68.70;;;;;;6333899;22;20292;-68
2021/11/08 04:23:23;;;;;;;27.33;21.70;;;17.60;68.90;;;;;;6333172;22;19995;-68
2021/11/08 04:25:54;;;;;;;12.57;6.78;;;17.60;69.00;;;;;;6334384;22;20014;-68
2021/11/08 04:28:21;;;;;;;4.20;2.67;;;17.60;68.90;;;;;;6332528;22;20372;-70
2021/11/08 04:30:48;;;;;;;5.78;1.77;;;17.60;68.90;;;;;;6333778;22;20005;-70
2021/11/08 04:33:24;;;;;;;5.43;1.30;;;17.60;69.10;;;;;;6335640;22;20005;-70
2021/11/08 04:41:13;;;;;;;5.75;1.80;;;17.60;69.40;;;;;;6334946;22;20010;-68
2021/11/08 04:46:35;;;;;;;5.07;2.00;;;17.60;69.40;;;;;;6333663;22;20014;-70
2021/11/08 05:32:11;;;;;;;0.52;0.38;;;18.10;64.40;;;;;;6334449;22;20046;-69
2021/11/08 05:34:37;;;;;;;1.45;0.50;;;18.20;64.10;;;;;;6335492;22;19999;-67
2021/11/08 05:37:08;;;;;;;0.20;0.20;;;18.20;64.20;;;;;;6334184;22;20002;-68
2021/11/08 05:39:37;;;;;;;5.15;0.50;;;18.30;64.10;;;;;;6335455;22;20095;-67
2021/11/08 05:42:04;;;;;;;1.60;0.30;;;18.30;64.00;;;;;;6333676;22;20080;-71
2021/11/08 05:45:10;;;;;;;2.60;0.75;;;18.30;63.50;;;;;;6334077;22;20513;-68
2021/11/08 05:48:16;;;;;;;2.15;1.05;;;18.40;63.60;;;;;;6332289;22;20010;-69
2021/11/08 05:51:23;;;;;;;0.50;0.38;;;18.40;62.80;;;;;;6331190;22;20697;-68
2021/11/08 05:54:29;;;;;;;0.80;0.50;;;18.50;62.20;;;;;;6300054;22;20010;-70
2021/11/08 08:22:04;;;;;;;0.40;0.40;;;20.80;55.40;;;;;;5079596;27;20433;-73
2021/11/08 08:24:31;;;;;;;2.30;0.40;;;21.20;53.00;;;;;;5065399;28;20086;-73
2021/11/08 08:27:03;;;;;;;3.47;0.47;;;21.30;54.00;;;;;;5060786;28;20019;-73
2021/11/08 08:29:31;;;;;;;0.30;0.30;;;21.40;53.10;;;;;;5066276;28;20025;-73
2021/11/08 08:31:57;;;;;;;0.30;0.30;;;21.50;53.00;;;;;;5064597;28;20052;-72
2021/11/08 08:34:25;;;;;;;6.43;0.95;;;21.60;51.20;;;;;;5063814;28;20021;-72
2021/11/08 08:36:53;;;;;;;1.55;0.80;;;21.70;51.80;;;;;;5068439;28;20020;-73
2021/11/08 08:39:20;;;;;;;2.63;0.32;;;21.80;52.30;;;;;;5065662;28;20044;-73
2021/11/08 08:41:47;;;;;;;1.30;0.22;;;21.90;51.90;;;;;;5060808;28;20019;-72
2021/11/08 08:44:15;;;;;;;1.48;0.70;;;22.00;51.80;;;;;;5061469;28;20073;-72
2021/11/08 08:46:45;;;;;;;0.88;0.55;;;22.00;51.30;;;;;;5060645;28;20436;-72
2021/11/08 08:49:14;;;;;;;0.45;0.35;;;22.10;52.10;;;;;;5064282;28;20040;-72
2021/11/08 08:51:42;;;;;;;0.68;0.30;;;22.10;52.50;;;;;;5060905;28;20066;-72
2021/11/08 08:54:10;;;;;;;1.13;0.50;;;22.10;54.00;;;;;;5068950;28;20051;-72
2021/11/08 08:56:37;;;;;;;3.20;1.00;;;22.10;54.40;;;;;;5059603;28;20017;-73
2021/11/08 08:59:05;;;;;;;3.47;0.55;;;22.10;54.00;;;;;;5064201;28;20016;-73
2021/11/08 09:01:31;;;;;;;3.13;0.70;;;22.10;54.50;;;;;;5063158;28;20116;-72
2021/11/08 09:03:59;;;;;;;0.93;0.50;;;22.10;54.50;;;;;;5064260;28;20021;-72
2021/11/08 09:06:26;;;;;;;2.58;0.45;;;22.20;53.40;;;;;;5066364;28;20032;-72
2021/11/08 09:08:54;;;;;;;3.03;0.77;;;22.20;53.30;;;;;;5061302;28;20025;-73
2021/11/08 09:11:23;;;;;;;0.95;0.50;;;22.30;53.00;;;;;;5062331;28;20070;-73
2021/11/08 09:13:50;;;;;;;5.47;0.47;;;22.30;52.70;;;;;;5068456;28;20021;-73
2021/11/08 09:16:17;;;;;;;0.93;0.30;;;22.40;52.00;;;;;;5071466;28;20395;-73
2021/11/08 09:18:48;;;;;;;1.83;0.50;;;22.50;52.00;;;;;;5061812;28;20077;-74
2021/11/08 09:21:16;;;;;;;2.15;0.47;;;22.60;51.50;;;;;;5059299;28;20087;-72
2021/11/08 09:23:44;;;;;;;0.80;0.35;;;22.50;50.90;;;;;;5053082;28;20017;-73
2021/11/08 09:26:11;;;;;;;0.73;0.50;;;22.50;49.50;;;;;;5049473;28;20024;-73
2021/11/08 09:28:38;;;;;;;0.90;0.47;;;22.50;49.30;;;;;;5046183;28;20411;-73
2021/11/08 09:31:05;;;;;;;0.50;0.40;;;22.50;47.80;;;;;;5051559;28;20055;-75
2021/11/08 09:33:33;;;;;;;3.92;0.73;;;22.50;47.80;;;;;;5048998;28;20108;-72
2021/11/08 09:36:05;;;;;;;1.60;0.32;;;22.60;48.50;;;;;;5047510;28;20051;-72
2021/11/08 09:38:33;;;;;;;0.70;0.70;;;22.60;48.20;;;;;;5056587;28;20478;-73
2021/11/08 09:41:01;;;;;;;1.33;0.40;;;22.70;47.00;;;;;;5046237;28;20022;-73
2021/11/08 09:43:29;;;;;;;0.65;0.43;;;22.80;47.60;;;;;;5051336;28;20048;-72
2021/11/08 09:45:56;;;;;;;6.13;0.82;;;22.90;47.40;;;;;;5042341;28;20018;-72
2021/11/08 09:48:24;;;;;;;1.08;0.30;;;23.10;46.10;;;;;;5050665;28;20016;-74
2021/11/08 09:50:51;;;;;;;0.82;0.30;;;23.10;45.80;;;;;;5049683;28;20464;-73
2021/11/08 09:53:18;;;;;;;2.35;0.38;;;23.20;46.10;;;;;;5048038;28;20052;-73
2021/11/08 09:55:46;;;;;;;1.17;0.38;;;23.30;45.70;;;;;;5047180;28;20052;-72
2021/11/08 09:58:14;;;;;;;0.90;0.55;;;23.30;45.30;;;;;;5050064;28;20075;-73
2021/11/08 10:00:47;;;;;;;2.70;0.52;;;23.40;45.50;;;;;;5050615;28;20017;-73
2021/11/08 10:03:21;;;;;;;1.00;0.30;;;23.50;45.10;;;;;;5054501;28;20014;-73
2021/11/08 10:05:49;;;;;;;0.20;0.20;;;23.60;44.90;;;;;;5048414;28;20487;-73
2021/11/08 10:08:19;;;;;;;1.42;0.50;;;23.70;44.40;;;;;;5046781;28;20021;-73
2021/11/08 10:10:46;;;;;;;0.40;0.30;;;23.80;44.60;;;;;;5049501;28;20067;-73
2021/11/08 10:13:16;;;;;;;2.17;0.20;;;23.80;44.20;;;;;;5050367;28;20023;-73
2021/11/08 10:15:46;;;;;;;1.85;0.60;;;23.80;44.00;;;;;;5050221;28;20022;-73
2021/11/08 10:18:14;;;;;;;3.55;0.50;;;23.80;44.00;;;;;;5048257;28;21146;-73
2021/11/08 10:20:47;;;;;;;2.35;0.30;;;23.80;44.60;;;;;;5050350;28;20094;-74
2021/11/08 10:23:17;;;;;;;1.85;0.95;;;23.80;44.70;;;;;;5047014;28;20466;-73
2021/11/08 10:25:48;;;;;;;0.98;0.70;;;23.90;44.60;;;;;;5049913;28;20024;-73
2021/11/08 10:28:20;;;;;;;2.17;0.60;;;23.90;43.30;;;;;;5045300;28;20021;-74
2021/11/08 10:30:53;;;;;;;0.30;0.30;;;23.90;43.30;;;;;;5055323;28;20029;-73
2021/11/08 10:33:29;;;;;;;1.25;0.50;;;24.00;43.30;;;;;;5045064;28;20100;-73
2021/11/08 10:36:04;;;;;;;1.35;0.57;;;24.00;43.40;;;;;;5050076;28;20538;-74
2021/11/08 10:38:33;;;;;;;4.13;0.60;;;24.10;43.30;;;;;;5052201;28;20029;-73
2021/11/08 10:41:30;;;;;;;3.25;0.43;;;24.20;43.20;;;;;;5041789;28;20475;-73
2021/11/08 10:44:03;;;;;;;1.25;0.43;;;24.20;42.90;;;;;;5049749;28;20032;-74
2021/11/08 10:46:36;;;;;;;2.35;0.47;;;24.30;42.30;;;;;;5046889;28;20051;-74
2021/11/08 10:49:12;;;;;;;5.40;0.75;;;24.30;42.90;;;;;;5050389;28;20017;-74
2021/11/08 10:51:42;;;;;;;1.48;0.38;;;24.40;43.10;;;;;;5046139;28;20415;-73
2021/11/08 10:54:14;;;;;;;4.35;0.82;;;24.50;42.40;;;;;;5045071;28;20480;-74
2021/11/08 10:57:20;;;;;;;2.10;0.68;;;24.50;42.60;;;;;;5050329;28;20013;-74
2021/11/08 10:59:49;;;;;;;0.32;0.20;;;24.50;42.90;;;;;;5034506;28;20086;-73
2021/11/08 11:02:55;;;;;;;1.45;0.40;;;24.60;43.30;;;;;;5050867;28;20592;-74
2021/11/08 11:06:01;;;;;;;1.85;0.40;;;24.60;43.50;;;;;;5049906;28;20060;-74
2021/11/08 11:08:48;;;;;;;;;;;24.70;43.30;;;;;;5048605;28;20041;-74
2021/11/08 11:11:16;;;;;;;0.98;0.40;;;24.60;43.50;;;;;;5047878;28;20355;-75
2021/11/08 11:13:50;;;;;;;0.85;0.30;;;24.70;43.40;;;;;;5047660;28;20487;-74
2021/11/08 11:16:30;;;;;;;2.40;1.13;;;24.80;43.10;;;;;;5045849;28;20468;-74
2021/11/08 11:19:03;;;;;;;5.63;0.60;;;24.90;43.20;;;;;;5050139;28;20017;-74
2021/11/08 11:21:29;;;;;;;1.60;0.68;;;24.90;42.80;;;;;;5047096;28;20443;-76
2021/11/08 11:24:02;;;;;;;0.60;0.32;;;24.90;42.70;;;;;;5050141;28;20048;-74
2021/11/08 11:26:31;;;;;;;0.65;0.57;;;24.90;43.00;;;;;;5044730;28;20025;-73
2021/11/08 11:28:58;;;;;;;1.30;0.40;;;24.90;42.90;;;;;;5044677;28;20530;-74
2021/11/08 11:31:27;;;;;;;1.35;0.60;;;24.80;42.70;;;;;;5047710;28;20048;-74
2021/11/08 11:34:07;;;;;;;3.25;0.57;;;24.70;43.00;;;;;;5045883;28;20107;-75
2021/11/08 11:36:36;;;;;;;1.60;0.40;;;24.70;43.40;;;;;;5047108;28;20397;-74
2021/11/08 11:39:06;;;;;;;2.22;0.57;;;24.70;43.50;;;;;;5049755;28;20100;-74
2021/11/08 11:41:36;;;;;;;0.85;0.40;;;24.60;42.90;;;;;;5045509;28;20028;-74
2021/11/08 11:44:14;;;;;;;0.85;0.40;;;24.60;43.50;;;;;;5044366;28;20078;-75
2021/11/08 11:46:44;;;;;;;0.60;0.32;;;24.60;42.80;;;;;;5042013;28;20021;-74
2021/11/08 11:49:11;;;;;;;2.20;0.60;;;24.70;42.90;;;;;;5043535;28;20049;-75
2021/11/08 11:52:18;;;;;;;3.30;0.55;;;24.80;42.40;;;;;;5043228;28;20036;-74
2021/11/08 11:54:52;;;;;;;;;;;24.90;41.80;;;;;;5045126;28;20024;-73
2021/11/08 11:57:18;;;;;;;2.65;0.63;;;24.90;41.00;;;;;;5046891;28;20342;-73
2021/11/08 11:59:45;;;;;;;1.35;0.35;;;25.10;41.50;;;;;;5039177;28;20030;-73
2021/11/08 12:02:16;;;;;;;4.78;0.63;;;25.20;41.20;;;;;;5049857;28;20021;-73
2021/11/08 12:04:42;;;;;;;1.75;0.40;;;25.20;40.90;;;;;;5040862;28;20101;-73
2021/11/08 12:07:10;;;;;;;0.47;0.32;;;25.30;40.80;;;;;;5045743;28;20021;-73
2021/11/08 12:09:37;;;;;;;0.57;0.38;;;25.30;40.50;;;;;;5046127;28;20020;-73
2021/11/08 12:12:05;;;;;;;9.82;0.52;;;25.40;40.90;;;;;;5043893;28;20013;-74
2021/11/08 12:14:35;;;;;;;1.50;0.68;;;25.50;40.70;;;;;;5047530;28;20443;-74
2021/11/08 12:17:06;;;;;;;1.65;0.40;;;25.70;40.40;;;;;;5047367;28;20017;-74
2021/11/08 12:19:43;;;;;;;0.73;0.57;;;25.70;40.10;;;;;;5047322;28;20029;-74
2021/11/08 12:22:20;;;;;;;1.38;0.40;;;25.80;40.10;;;;;;5046288;28;20245;-74
2021/11/08 12:25:20;;;;;;;1.70;0.45;;;25.80;39.80;;;;;;5048221;28;20092;-74
2021/11/08 12:27:48;;;;;;;0.70;0.70;;;25.80;39.50;;;;;;5057372;28;20045;-74
2021/11/08 12:30:28;;;;;;;1.08;0.65;;;25.80;39.90;;;;;;5044964;28;20372;-74
2021/11/08 12:32:57;;;;;;;4.70;0.50;;;25.80;39.70;;;;;;5045766;28;20067;-74
2021/11/08 12:35:33;;;;;;;5.53;1.35;;;25.90;40.10;;;;;;5045424;28;20009;-75
2021/11/08 12:38:01;;;;;;;2.97;0.65;;;25.90;39.90;;;;;;5048853;28;20017;-74
2021/11/08 12:40:32;;;;;;;3.20;1.02;;;25.90;39.50;;;;;;5046271;28;20035;-73
2021/11/08 12:42:59;;;;;;;1.85;0.70;;;25.90;38.80;;;;;;5045612;28;20114;-75
2021/11/08 12:45:36;;;;;;;3.60;0.85;;;25.90;39.20;;;;;;5047542;28;20456;-75
2021/11/08 12:48:07;;;;;;;2.75;0.88;;;26.00;38.90;;;;;;5046285;28;20411;-74
2021/11/08 12:50:41;;;;;;;2.10;1.02;;;26.00;39.10;;;;;;5047948;28;20071;-75
2021/11/08 12:53:19;;;;;;;1.13;0.57;;;26.00;38.80;;;;;;5042074;28;20484;-74
2021/11/08 12:55:45;;;;;;;1.60;0.60;;;26.10;38.80;;;;;;5042346;28;20396;-73
2021/11/08 12:58:12;;;;;;;3.75;0.88;;;26.10;38.20;;;;;;5048885;28;20415;-74
2021/11/08 13:00:41;;;;;;;1.67;1.13;;;26.10;38.30;;;;;;5049458;28;20090;-74
2021/11/08 13:03:14;;;;;;;2.22;0.70;;;26.00;38.40;;;;;;5049015;28;20022;-74
2021/11/08 13:05:49;;;;;;;1.33;0.70;;;26.00;38.20;;;;;;5047004;28;20013;-75
2021/11/08 13:08:22;;;;;;;1.98;0.88;;;25.90;38.50;;;;;;5052475;28;20388;-74
2021/11/08 13:11:15;;;;;;;2.17;1.02;;;25.80;38.40;;;;;;5046422;28;20030;-75
2021/11/08 13:14:01;;;;;;;2.67;1.35;;;25.50;38.20;;;;;;5054510;28;20091;-74
2021/11/08 13:16:38;;;;;;;2.05;0.80;;;25.30;39.00;;;;;;5052505;28;20099;-73
2021/11/08 13:19:16;;;;;;;4.20;0.52;;;25.30;39.10;;;;;;5051505;28;20080;-74
2021/11/08 13:21:43;;;;;;;1.65;0.50;;;25.20;39.30;;;;;;5046787;28;20055;-74
2021/11/08 13:24:12;;;;;;;1.52;0.47;;;25.20;39.60;;;;;;5051695;28;20031;-74
2021/11/08 13:26:44;;;;;;;1.27;1.17;;;25.30;40.00;;;;;;5046894;28;20021;-74
2021/11/08 13:29:21;;;;;;;2.20;0.68;;;25.30;39.80;;;;;;5047529;28;20388;-73
2021/11/08 13:31:50;;;;;;;5.25;0.98;;;25.30;40.20;;;;;;5049408;28;20025;-74
2021/11/08 13:34:18;;;;;;;1.08;0.55;;;25.30;40.30;;;;;;5050181;28;20018;-74
2021/11/08 13:36:47;;;;;;;5.03;0.82;;;25.30;40.60;;;;;;5047668;28;20033;-74
2021/11/08 13:39:13;;;;;;;2.33;0.55;;;25.40;40.60;;;;;;5051644;28;20096;-73
2021/11/08 13:41:40;;;;;;;3.10;0.73;;;25.30;40.60;;;;;;5049662;28;20460;-74
2021/11/08 13:44:08;;;;;;;3.03;0.88;;;25.30;41.20;;;;;;5044740;28;20061;-74
2021/11/08 13:46:36;;;;;;;3.13;0.50;;;25.30;41.10;;;;;;5047707;28;20072;-73
2021/11/08 13:49:14;;;;;;;3.05;0.77;;;25.30;41.30;;;;;;5053860;28;20051;-73
2021/11/08 13:51:47;;;;;;;2.67;0.75;;;25.20;41.40;;;;;;5047676;28;20025;-75
2021/11/08 13:54:15;;;;;;;2.60;0.80;;;25.20;41.70;;;;;;5047503;28;20027;-74
2021/11/08 13:56:57;;;;;;;1.50;0.77;;;25.20;42.00;;;;;;5049293;28;20028;-74
2021/11/08 13:59:31;;;;;;;1.95;0.60;;;25.20;41.90;;;;;;5045660;28;20521;-74
2021/11/08 14:02:07;;;;;;;3.92;0.68;;;25.30;42.10;;;;;;5047454;28;20025;-74
2021/11/08 14:04:42;;;;;;;2.25;1.50;;;25.30;41.80;;;;;;5048526;28;20107;-73
2021/11/08 14:07:10;;;;;;;3.63;0.82;;;25.30;41.50;;;;;;5049349;28;20021;-73
2021/11/08 16:28:17;;;;;;;5.60;2.25;;;23.40;48.40;;;;;;5129043;27;20834;-78
2021/11/08 16:30:44;;;;;;;0.55;0.55;;;23.10;50.00;;;;;;5126784;27;20045;-71
2021/11/08 16:33:29;;;;;;;3.22;0.80;;;23.10;49.40;;;;;;5130965;27;20031;-70
2021/11/08 16:35:56;;;;;;;2.53;0.65;;;23.10;49.30;;;;;;5129482;27;20046;-69
2021/11/08 16:38:28;;;;;;;4.68;1.15;;;23.10;48.90;;;;;;5130427;27;20026;-69
2021/11/08 16:40:59;;;;;;;6.60;2.80;;;23.20;49.10;;;;;;5126647;27;20022;-68
2021/11/08 16:43:27;;;;;;;3.05;1.50;;;23.10;49.30;;;;;;5132251;27;20037;-69
2021/11/08 16:46:00;;;;;;;25.60;20.95;;;23.20;49.50;;;;;;5126504;27;20370;-69
2021/11/08 16:48:33;;;;;;;24.80;16.10;;;23.20;50.00;;;;;;5128634;27;20030;-71
2021/11/08 16:51:00;;;;;;;22.70;12.93;;;23.10;49.80;;;;;;5125287;27;20061;-73
2021/11/08 16:53:27;;;;;;;734.30;434.33;;;23.20;49.40;;;;;;5126205;27;20019;-72
2021/11/08 16:55:55;;;;;;;611.33;368.75;;;23.10;49.50;;;;;;5125569;27;20027;-71
2021/11/08 16:58:22;;;;;;;97.50;48.15;;;23.10;50.90;;;;;;5130865;27;20037;-70
2021/11/08 17:00:57;;;;;;;23.02;12.23;;;23.10;50.30;;;;;;5135993;27;20076;-71
2021/11/08 17:03:25;;;;;;;11.07;4.03;;;23.00;50.40;;;;;;5134817;27;21764;-68
2021/11/08 17:11:23;;;;;;;4.65;1.40;;;22.80;50.50;;;;;;5132026;27;20740;-68
2021/11/08 17:14:02;;;;;;;5.95;2.42;;;22.80;50.80;;;;;;5133427;27;20041;-71
2021/11/08 17:16:29;;;;;;;6.40;1.50;;;22.70;50.80;;;;;;5135771;27;20484;-69
2021/11/08 17:18:56;;;;;;;6.35;2.45;;;22.60;51.70;;;;;;5134556;27;20164;-68
2021/11/08 17:21:26;;;;;;;4.82;1.85;;;22.60;51.40;;;;;;5127692;27;20023;-68
2021/11/08 17:24:07;;;;;;;2.28;1.05;;;22.60;51.50;;;;;;5135492;27;20434;-72
2021/11/08 17:27:02;;;;;;;7.75;2.30;;;22.50;51.30;;;;;;5128297;27;20047;-70
2021/11/08 17:29:29;;;;;;;5.75;1.45;;;22.40;51.70;;;;;;5111031;27;20057;-71
2021/11/08 17:31:55;;;;;;;7.70;2.25;;;22.30;51.70;;;;;;5104053;27;20035;-70
2021/11/08 17:34:22;;;;;;;39.88;25.17;;;22.30;51.80;;;;;;5105323;27;20102;-73
2021/11/08 17:36:48;;;;;;;28.85;20.55;;;22.30;52.00;;;;;;5099600;27;20382;-70
2021/11/08 17:39:15;;;;;;;13.02;8.68;;;22.20;51.90;;;;;;5105016;27;20067;-68
2021/11/08 17:41:42;;;;;;;5.60;2.47;;;22.20;51.80;;;;;;5102106;27;20028;-67
2021/11/08 17:44:09;;;;;;;3.25;1.30;;;22.10;51.50;;;;;;5107210;27;20016;-68
2021/11/08 17:46:35;;;;;;;3.50;1.35;;;22.10;51.60;;;;;;5100857;27;20375;-67
2021/11/08 17:49:02;;;;;;;2.65;0.85;;;22.10;51.30;;;;;;5106840;27;20028;-66
2021/11/08 17:51:28;;;;;;;4.28;1.42;;;22.10;51.20;;;;;;5102295;27;20023;-66
2021/11/08 17:53:55;;;;;;;1.80;1.00;;;22.00;51.40;;;;;;5108053;27;20048;-67
2021/11/08 17:56:21;;;;;;;2.22;1.05;;;22.00;51.50;;;;;;5106800;27;20054;-69
2021/11/08 17:58:51;;;;;;;2.47;1.00;;;21.90;51.50;;;;;;5111539;27;20024;-72
2021/11/08 18:01:18;;;;;;;2.30;0.63;;;21.90;51.60;;;;;;5113607;27;20466;-70
2021/11/08 18:03:45;;;;;;;5.10;1.00;;;21.90;51.40;;;;;;5112983;27;20064;-72
2021/11/08 18:06:11;;;;;;;2.35;0.80;;;21.80;51.40;;;;;;5116923;27;20047;-68
2021/11/08 18:08:38;;;;;;;4.15;1.50;;;21.80;51.50;;;;;;5111283;27;20022;-70
2021/11/08 18:11:08;;;;;;;2.70;1.00;;;21.80;51.30;;;;;;5109832;27;20024;-71
2021/11/08 18:13:35;;;;;;;2.63;1.27;;;21.80;51.30;;;;;;5111954;27;20020;-73
2021/11/08 18:16:01;;;;;;;3.15;1.00;;;21.70;51.30;;;;;;5117653;27;20031;-69
2021/11/08 18:18:28;;;;;;;2.97;1.00;;;21.70;51.60;;;;;;5105076;27;20156;-71
2021/11/08 18:23:39;;;;;;;3.15;1.08;;;21.60;51.70;;;;;;5105373;27;20375;-71
2021/11/08 18:26:18;;;;;;;3.47;1.15;;;21.60;51.80;;;;;;5114055;27;20020;-72
2021/11/08 18:28:47;;;;;;;32.92;28.20;;;21.60;52.00;;;;;;5111805;27;20145;-68
2021/11/08 18:31:16;;;;;;;17.73;13.32;;;21.50;52.30;;;;;;5113562;27;20023;-71
2021/11/08 18:33:43;;;;;;;5.07;2.58;;;21.50;52.40;;;;;;5116942;27;20023;-69
2021/11/08 18:36:15;;;;;;;7.35;1.40;;;21.50;52.60;;;;;;5113753;27;20027;-68
2021/11/08 18:38:43;;;;;;;1.75;1.00;;;21.40;52.80;;;;;;5112577;27;20390;-68
2021/11/08 18:41:11;;;;;;;2.13;1.20;;;21.40;53.10;;;;;;5113863;27;20024;-68
2021/11/08 18:43:38;;;;;;;3.47;0.85;;;21.40;53.30;;;;;;5115837;27;20145;-68
2021/11/08 18:46:05;;;;;;;2.00;1.15;;;21.30;53.60;;;;;;5112780;27;20019;-73
2021/11/08 18:48:33;;;;;;;3.53;1.40;;;21.30;53.70;;;;;;5115867;27;20016;-71